Cable, Wisconsin
Current Conditions -  °F | °C
As of 6:53 PM on Wednesday 17 Dec 2014 (Local Time) from KHYR Reporting Station
Overcast Overcast  
Wind Chill: 10°   Ceiling: 1800
Heat Index: 18°   Visibility: 10mi
Dew Point: 12°   Wind: 6mph
Humidity: 78%   Direction: 10°N
Pressure: 30.27"   Gusts: NA
Location:  46.21°N, 91.29°W
Report Text: KHYR 180053Z AUTO 01005KT 10SM OVC018 M08/M11 A3027 RMK AO2 SLP277 T10781111
Loading
Personal Weather Stations






























Interactive Weather Map New forecast layout! Learn more

10-Day Weather Forecast

Advertisements
Track Severe Weather on mobile